Avalon School, Santa Catalina Island Weather observations

Data are for 10 minute period ending at time listed.
 Day   Time   Solar   Ave.   Ave.  Ave.  Vector    Max.   Stn.    Total
  of    of     Rad.   Air    Rel.  Wind   Wind     Wind   Baro.  Precip.
Year   Day            Temp.  Hum.  Speed  Dir.     Gust   Pres.         
2016   (PST)   W/m2    F      %     mph   deg.      mph    mb.     in.  
------------------------------------------------------------------------
 119   12:30  430.0    64   67.7     4     91.8     9.0    999.0   0.00  
 119   12:40  528.0    64   66.9     5     99.5    10.2    999.0   0.00  
 119   12:50  460.0    63   69.7     6    101.0    10.2    999.0   0.00  
 119   13:00  604.0    64   68.1     5    106.0    10.8    999.0   0.00  
 119   13:10  772.0    64   67.8     4     95.3     8.4    999.0   0.00  
 119   13:20  653.0    65   65.4     4    346.0     7.2    999.0   0.00  
 119   13:30  734.0    65   66.3     6     11.0    13.1    999.0   0.00  
 119   13:40  723.0    66   65.2     5     72.9    12.5    999.0   0.00  
 119   13:50  711.0    64   69.1     6    102.2    11.9    999.0   0.12  
 119   14:00  703.0    65   66.9     5    133.2     9.6    999.0   0.00  
 119   14:10  682.0    64   68.5     4     91.7     7.2    999.0   0.00  
 119   14:20  632.0    64   67.3     5    117.1     9.0    999.0   0.00  
 119   14:30  630.0    64   68.5     5    105.3    10.2    999.0   0.00  
 119   14:40  626.0    64   68.0     5     84.6     9.6    999.0   0.00  
 119   14:50  588.0    63   69.4     5     95.2    10.8    999.0   0.05  
 119   15:00  559.0    65   67.8     5    101.3     7.8    999.0   0.00  
 119   15:10  523.0    64   69.2     5     85.2    10.2    999.0   0.00  
 119   15:20  509.0    64   69.0     5     87.6     9.0    999.0   0.08  
 119   15:30  470.0    64   69.8     6     93.8    11.3    999.0   0.00  
 119   15:40  452.0    64   69.7     5     95.1    10.2    999.0   0.00  
 119   15:50  429.0    64   71.3     6     89.9    10.8    999.0   0.00  
 119   16:00  399.0    63   71.7     6     89.0     9.6    999.0   0.00  
 119   16:10  368.0    64   70.4     3     91.1     8.4    999.0   0.02  
 119   16:20  343.0    65   68.7     4     72.4     9.0    999.0   0.00  
 119   16:30  314.0    64   70.9     5     63.6     9.6    999.0   0.00  
 119   16:40  280.0    63   73.9     7     82.9    10.8    999.0   0.00  
 119   16:50  249.0    63   74.1     4     74.6     6.6    999.0   0.00  
 119   17:00  219.0    64   72.6     3     83.0     7.2    999.0   0.00  
 119   17:10  194.0    64   70.8     3     63.2     7.2    999.0   0.00  
 119   17:20   89.0    63   72.5     2     87.9     6.0    999.0   0.00  
 119   17:30   36.0    62   74.0     2    195.8     3.6    999.0   0.00  
 119   17:40   31.0    61   74.3     2     74.1     4.2    999.0   0.00  
 119   17:50   25.0    61   75.8     3    271.6     5.4    999.0   0.00  
 119   18:00   21.0    61   77.1     1    251.8     3.0    999.0   0.00  
 119   18:10   17.0    61   77.4     1    106.0     3.0    999.0   0.00  
 119   18:20   13.0    60   77.8     1    273.2     4.2    999.0   0.00  
 119   18:30    7.0    60   78.8     2    266.3     3.6    999.0   0.00  
 119   18:40    3.0    60   78.6     4    269.7     7.8    999.0   0.00  
 119   18:50    1.0    59   77.9     3    263.6     7.2    999.0   0.00  
 119   19:00    0.0    59   78.4     4    260.7     7.8    999.0   0.00  
 119   19:10    0.0    59   78.9     4    266.2     6.6    999.0   0.00  
 119   19:20    0.0    58   79.6     3    270.0     4.8    999.0   0.00  
 119   19:30    0.0    58   80.2     1    271.8     3.0    999.0   0.00  
 119   19:40    0.0    58   81.0     0    208.1     3.6    999.0   0.00  
 119   19:50    0.0    58   81.9     2    189.4     4.8    999.0   0.00  
 119   20:00    0.0    58   81.6     1    193.5     4.8    999.0   0.00  
 119   20:10    0.0    58   82.4     2    192.6     5.4    999.0   0.00  
 119   20:20    0.0    58   83.7     2    176.1     5.4    999.0   0.00  
 119   20:30    0.0    58   84.1     2    178.2     5.4    999.0   0.00  
 119   20:40    0.0    58   84.3     2    167.7     5.4    999.0   0.00  
 119   20:50    0.0    57   84.7     2    182.3     4.8    999.0   0.00  
 119   21:00    0.0    57   85.2     3    236.8     7.8    999.0   0.00  
 119   21:10    0.0    57   85.0     2    209.1     4.8    999.0   0.00  
 119   21:20    0.0    57   85.2     1    251.7     4.2    999.0   0.00  
 119   21:30    0.0    56   85.4     2    267.6     4.2    999.0   0.00  
 119   21:40    0.0    56   85.4     1    267.2     3.0    999.0   0.00  
 119   21:50    0.0    55   85.7     0      0.0     0.0    999.0   0.00  
 119   22:00    0.0    55   86.1     0      0.0     0.0    999.0   0.00  
 119   22:10    0.0    55   86.5     0    174.6     2.4    999.0   0.00  
 119   22:20    0.0    55   86.4     0      0.0     0.0    999.0   0.00  
 119   22:30    0.0    55   86.5     1    220.6     4.8    999.0   0.00  
 119   22:40    0.0    56   85.9     1    194.2     3.6    999.0   0.00  
 119   22:50    0.0    56   85.9     0      0.0     0.0    999.0   0.00  
 119   23:00    0.0    56   86.1     0      0.0     0.0    999.0   0.00  
 119   23:10    0.0    56   86.5     0      0.0     0.0    999.0   0.00  
 119   23:20    0.0    56   86.7     0      0.0     0.0    999.0   0.00  
 119   23:30    0.0    56   87.0     0      0.0     0.0    999.0   1.18  
 119   23:40    0.0    56   87.4     0      0.0     0.0    999.0   1.65  
 119   23:50    0.0    56   87.6     0      0.0     0.0    999.0   1.58  
 120    0:00    0.0    56   87.8     0      0.0     0.0    999.0   1.68  
 120    0:10    0.0    56   87.9     0      0.0     0.0    999.0   1.94  
 120    0:20    0.0    56   87.9     0      0.0     0.0    999.0   1.91  
 120    0:30    0.0    56   88.2     0      0.0     0.0    999.0   2.00  
 120    0:40    0.0    56   88.5     0      0.0     0.0    999.0   2.00  
 120    0:50    0.0    56   88.7     0      0.0     0.0    999.0   1.99  
 120    1:00    0.0    55   88.9     0      0.0     0.0    999.0   1.96  
 120    1:10    0.0    56   89.1     0      0.0     0.0    999.0   1.32  
 120    1:20    0.0    56   89.0     0      0.0     0.0    999.0   0.01  
 120    1:30    0.0    56   89.1     0    258.7     2.4    999.0   0.00  
 120    1:40    0.0    56   88.9     1     93.2     3.6    999.0   0.00  
 120    1:50    0.0    56   88.6     0    259.2     1.2    999.0   0.05  
 120    2:00    0.0    56   88.9     0      0.0     0.0    999.0   0.57  
 120    2:10    0.0    57   89.0     1    206.0     3.6    999.0   0.00  
 120    2:20    0.0    57   88.9     1    246.8     3.0    999.0   0.07  
 120    2:30    0.0    57   88.3     1     86.8     3.6    999.0   0.11  
 120    2:40    0.0    57   88.3     1     90.1     3.6    999.0   0.05  
 120    2:50    0.0    58   87.6     3    117.1     6.6    999.0   0.00  
 120    3:00    0.0    58   85.8     4     99.3     7.8    999.0   0.00  
 120    3:10    0.0    58   85.0     1    136.0     4.2    999.0   0.00  
 120    3:20    0.0    58   85.5     2    110.6     5.4    999.0   0.00  
 120    3:30    0.0    58   85.1     2    111.1     4.2    999.0   0.00  
 120    3:40    0.0    57   84.8     2    108.2     5.4    999.0   0.00  
 120    3:50    0.0    57   84.0     3     82.9     6.0    999.0   0.00  
 120    4:00    0.0    57   84.0     1    326.3     3.6    999.0   0.00  
 120    4:10    0.0    57   84.6     0    331.3     1.8    999.0   0.35  
 120    4:20    0.0    57   84.3     2    322.6     4.8    999.0   0.06  
 120    4:30    0.0    57   83.5     1    166.5     3.6    999.0   0.00  
 120    4:40    0.0    56   83.9     0    219.9     1.8    999.0   0.00  
 120    4:50    0.0    56   84.3     0    257.6     1.8    999.0   0.00  
 120    5:00    1.0    56   84.6     0    104.3     1.2    999.0   0.00  
 120    5:10    3.0    56   85.6     1    262.9     3.0    999.0   0.00  
 120    5:20    7.0    55   86.1     0      0.0     0.0    999.0   0.00  
 120    5:30   12.0    54   86.8     1    266.4     3.0    999.0   0.01  
 120    5:40   17.0    54   87.2     0    251.6     1.8    999.0   0.00  
 120    5:50   23.0    54   87.3     0    145.4     1.8    999.0   0.00  
 120    6:00   38.0    54   87.4     1    260.8     2.4    999.0   0.00  
 120    6:10   83.0    56   86.8     2    293.6     4.2    999.0   0.65  
 120    6:20   82.0    57   85.3     1    290.6     3.6    999.0   0.53  
 120    6:30   86.0    58   83.5     2     91.1     3.0    999.0   1.06  
 120    6:40  142.0    58   82.1     2     88.7     3.6    999.0   0.08  
 120    6:50  201.0    60   79.5     2     89.7     4.8    999.0   0.27  
 120    7:00  170.0    60   76.9     2     76.6     4.2    999.0   0.18  
 120    7:10  255.0    62   74.7     2     75.2     4.2    999.0   0.02  
 120    7:20  225.0    62   72.9     3    103.0     7.8    999.0   0.10  
 120    7:30  347.0    62   73.1     4     79.1     6.0    999.0   0.06  
 120    7:40  364.0    62   71.4     3     82.4     7.2    999.0   0.00  
 120    7:50  387.0    62   71.5     4    111.7     7.8    999.0   0.00  
 120    8:00  412.0    63   70.0     4     57.4     9.0    999.0   0.12  
 120    8:10  442.0    64   67.2     3     95.3     8.4    999.0   0.44  
 120    8:20  468.0    64   66.5     4     91.2     9.6    999.0   1.22  
 120    8:30  494.0    63   68.0     6     85.4    10.8    999.0   0.58  
 120    8:40  517.0    64   67.8     5     90.8    11.3    999.0   0.30  
 120    8:50  541.0    64   67.7     4     98.7     9.6    999.0   0.16  
 120    9:00  563.0    64   66.6     4     93.6     9.0    999.0   0.94  
 120    9:10  587.0    64   66.9     5     72.2    10.8    999.0   1.01  
 120    9:20  612.0    65   65.5     5     81.6    11.9    999.0   0.11  
 120    9:30  615.0    65   65.7     5     81.2     9.6    999.0   0.06  
 120    9:40  506.0    65   65.5     5     74.2     9.6    999.0   0.00  
 120    9:50  521.0    66   64.7     3    271.1     6.0    999.0   0.07  
 120   10:00  596.0    65   65.7     4    265.7     9.6    999.0   0.34  
 120   10:10  753.0    66   64.0     4    301.8     9.0    999.0   0.00  
 120   10:20  736.0    66   65.0     5    309.8    10.8    999.0   0.00  
 120   10:30  760.0    66   64.8     5    338.1    10.2    999.0   0.62  
 120   10:40  756.0    66   64.1     6     85.4    11.9    999.0   0.00  
 120   10:50  735.0    66   65.0     4    271.1    11.3    999.0   0.41  
 120   11:00  761.0    66   63.9     4    271.7     9.0    999.0   0.65  
 120   11:10  771.0    66   64.1     5    358.2    10.8    999.0   0.52  
 120   11:20  778.0    67   64.5     5    215.6     9.0    999.0   0.44  
 120   11:30  783.0    66   64.9     7     53.6    14.3    999.0   0.15  
 120   11:40  788.0    66   65.9     6    342.2    11.9    999.0   0.15  
 120   11:50  790.0    66   65.9     5     45.9    11.9    999.0   0.07  
 120   12:00  793.0    67   64.7     5     83.4    10.8    999.0   0.00  
 120   12:10  789.0    66   65.8     6     39.5    11.3    999.0   0.00  
 120   12:20  788.0    66   65.2     4    181.5    13.7    999.0   0.58  

Return to Avalon School graphs page.


Western Regional Climate Center,wrcc@dri.edu